Time;durP1;ratioP1;P1;durP2;ratioP2;P2;SDS_P1;SDS_P2;PMS_P1;PMS_P2;Temp;Humidity;BMP_temperature;BMP_pressure;BME280_temperature;BME280_humidity;BME280_pressure;Samples;Min_cycle;Max_cycle;Signal;HPM_P1;HPM_P2
2023/02/20 00:02:15;;;;;;;35.92;32.97;;;;;;;10.11;100.00;101060.31;5029104;28;20049;-81
2023/02/20 00:04:41;;;;;;;36.30;33.05;;;;;;;10.21;100.00;101066.09;5035006;28;20053;-81
2023/02/20 00:07:08;;;;;;;39.15;35.80;;;;;;;10.22;100.00;101067.72;5030221;28;20126;-81
2023/02/20 00:09:36;;;;;;;46.78;43.13;;;;;;;10.14;100.00;101079.31;5033971;28;20100;-81
2023/02/20 00:12:03;;;;;;;35.80;32.60;;;;;;;10.20;100.00;101089.16;5034151;28;20057;-80
2023/02/20 00:14:30;;;;;;;40.03;36.63;;;;;;;10.12;100.00;101089.31;5034013;28;20065;-81
2023/02/20 00:16:56;;;;;;;37.15;33.60;;;;;;;10.06;100.00;101074.97;5034603;28;20045;-81
2023/02/20 00:19:23;;;;;;;33.10;30.00;;;;;;;10.01;100.00;101072.06;5034559;28;20049;-81
2023/02/20 00:21:51;;;;;;;35.30;32.00;;;;;;;10.07;100.00;101068.63;5034242;28;20049;-81
2023/02/20 00:24:19;;;;;;;34.78;31.33;;;;;;;9.95;100.00;101072.84;5033224;28;20088;-81
2023/02/20 00:26:48;;;;;;;36.08;32.67;;;;;;;9.99;100.00;101071.47;5033827;28;20495;-81
2023/02/20 00:29:17;;;;;;;34.42;30.92;;;;;;;9.85;100.00;101072.38;5034325;28;20081;-81
2023/02/20 00:31:44;;;;;;;34.92;31.35;;;;;;;9.91;100.00;101076.91;5034771;28;20115;-81
2023/02/20 00:34:10;;;;;;;38.33;35.05;;;;;;;9.98;100.00;101064.50;5034112;28;20045;-80
2023/02/20 00:36:37;;;;;;;38.83;35.40;;;;;;;9.82;100.00;101065.59;5034247;28;20485;-81
2023/02/20 00:39:04;;;;;;;35.10;31.88;;;;;;;9.75;100.00;101070.03;5033604;28;20084;-81
2023/02/20 00:41:31;;;;;;;36.90;33.38;;;;;;;9.58;100.00;101064.19;5033795;28;20045;-81
2023/02/20 00:43:59;;;;;;;38.63;34.95;;;;;;;9.58;100.00;101068.66;5033742;28;20477;-81
2023/02/20 00:46:25;;;;;;;39.35;35.80;;;;;;;9.49;100.00;101067.16;5033825;28;20499;-80
2023/02/20 00:48:52;;;;;;;38.90;35.28;;;;;;;9.41;100.00;101084.03;5034054;28;20104;-81
2023/02/20 00:51:19;;;;;;;36.65;33.10;;;;;;;9.38;100.00;101071.16;5033641;28;20053;-82
2023/02/20 00:53:45;;;;;;;44.00;40.20;;;;;;;9.34;100.00;101076.00;5033553;28;20507;-81
2023/02/20 00:56:12;;;;;;;45.83;42.03;;;;;;;9.25;100.00;101071.00;5033294;28;20115;-82
2023/02/20 00:58:39;;;;;;;46.58;42.85;;;;;;;9.32;100.00;101083.31;5033996;28;20041;-81
2023/02/20 01:01:08;;;;;;;48.88;44.72;;;;;;;9.16;100.00;101087.00;5033792;28;20172;-81
2023/02/20 01:03:35;;;;;;;40.25;36.75;;;;;;;9.16;100.00;101087.00;5034080;28;20527;-81
2023/02/20 01:06:01;;;;;;;40.03;36.60;;;;;;;9.02;100.00;101079.94;5034416;28;20120;-81
2023/02/20 01:08:28;;;;;;;43.50;39.80;;;;;;;8.97;100.00;101079.69;5033400;28;20507;-81
2023/02/20 01:10:55;;;;;;;44.15;40.20;;;;;;;8.87;100.00;101082.63;5033852;28;20111;-80
2023/02/20 01:13:21;;;;;;;44.42;40.70;;;;;;;8.91;100.00;101086.53;5032453;28;20481;-80
2023/02/20 01:15:48;;;;;;;40.05;36.60;;;;;;;8.89;100.00;101099.13;5033702;28;20095;-81
2023/02/20 01:18:17;;;;;;;48.08;43.50;;;;;;;8.83;100.00;101096.41;5033062;28;20057;-81
2023/02/20 01:20:43;;;;;;;42.67;39.05;;;;;;;8.97;100.00;101095.56;5032675;28;20049;-81
2023/02/20 01:23:10;;;;;;;43.08;38.83;;;;;;;8.75;100.00;101093.88;5033372;28;20049;-81
2023/02/20 01:25:37;;;;;;;49.53;45.63;;;;;;;8.56;100.00;101101.34;5032142;28;20041;-81
2023/02/20 01:28:04;;;;;;;46.78;42.90;;;;;;;8.56;100.00;101097.91;5030717;28;20049;-81
2023/02/20 01:30:31;;;;;;;49.65;45.08;;;;;;;8.64;100.00;101095.97;5033553;28;20049;-81
2023/02/20 01:32:57;;;;;;;47.88;43.78;;;;;;;8.58;100.00;101101.19;5033441;28;20107;-81
2023/02/20 01:35:29;;;;;;;44.50;40.80;;;;;;;8.60;100.00;101100.00;5033928;28;20049;-81
2023/02/20 01:37:56;;;;;;;44.88;40.88;;;;;;;8.63;100.00;101094.34;5032979;28;20046;-81
2023/02/20 01:40:24;;;;;;;42.70;39.05;;;;;;;8.59;100.00;101101.00;5032647;28;20037;-81
2023/02/20 01:42:50;;;;;;;45.72;41.50;;;;;;;8.53;100.00;101095.63;5029561;28;20503;-81
2023/02/20 01:45:29;;;;;;;43.88;39.88;;;;;;;8.46;100.00;101087.59;5032963;28;20095;-82
2023/02/20 01:47:57;;;;;;;43.28;39.85;;;;;;;8.68;100.00;101080.53;5032048;28;20502;-81
2023/02/20 01:50:29;;;;;;;42.75;38.85;;;;;;;8.62;100.00;101082.13;5032409;28;20052;-79
2023/02/20 01:53:01;;;;;;;46.25;42.25;;;;;;;8.56;100.00;101089.94;5032866;28;20053;-81
2023/02/20 01:55:31;;;;;;;43.67;39.83;;;;;;;8.49;100.00;101090.69;5032007;28;20046;-81
2023/02/20 01:58:03;;;;;;;46.45;42.80;;;;;;;8.63;100.00;101085.59;5032735;28;20454;-81
2023/02/20 02:00:30;;;;;;;39.80;36.75;;;;;;;8.75;100.00;101093.88;5032153;28;20132;-80
2023/02/20 02:03:02;;;;;;;49.33;45.20;;;;;;;8.63;100.00;101097.00;5033117;28;20045;-81
2023/02/20 02:05:31;;;;;;;45.38;41.42;;;;;;;8.53;100.00;101101.72;5032569;28;20053;-81
2023/02/20 02:07:59;;;;;;;45.08;41.30;;;;;;;8.91;100.00;101098.97;5030549;28;20053;-81
2023/02/20 02:10:30;;;;;;;43.45;39.45;;;;;;;8.86;100.00;101101.34;5031839;28;20052;-81
2023/02/20 02:12:57;;;;;;;47.08;43.22;;;;;;;8.52;100.00;101107.22;5031748;28;20115;-81
2023/02/20 02:15:24;;;;;;;42.50;38.90;;;;;;;8.52;100.00;101115.97;5032100;28;20049;-80
2023/02/20 02:18:10;;;;;;;39.90;36.17;;;;;;;8.64;100.00;101116.34;5032438;28;20045;-80
2023/02/20 02:21:09;;;;;;;44.65;40.83;;;;;;;8.67;100.00;101114.16;5029206;28;20080;-81
2023/02/20 02:24:08;;;;;;;46.22;42.22;;;;;;;8.53;100.00;101116.78;5031946;28;20050;-81
2023/02/20 02:27:14;;;;;;;40.58;37.13;;;;;;;8.60;100.00;101115.91;5030548;28;20115;-81
2023/02/20 02:30:19;;;;;;;43.88;40.20;;;;;;;8.59;100.00;101118.72;5029260;28;20112;-81
2023/02/20 02:33:05;;;;;;;43.65;40.50;;;;;;;8.51;100.00;101117.00;5022243;28;20568;-81
2023/02/20 02:36:09;;;;;;;46.42;42.72;;;;;;;8.54;100.00;101126.41;5029352;28;20119;-81
2023/02/20 02:38:44;;;;;;;47.50;43.80;;;;;;;8.47;100.00;101132.44;5031272;28;20474;-81
2023/02/20 02:41:20;;;;;;;42.65;39.47;;;;;;;8.67;100.00;101153.06;5030943;28;20111;-80
2023/02/20 02:43:54;;;;;;;42.75;39.58;;;;;;;8.57;100.00;101144.56;5030713;28;20084;-81
2023/02/20 02:46:27;;;;;;;48.10;44.65;;;;;;;8.54;100.00;101155.53;5031363;28;20041;-81
2023/02/20 02:49:01;;;;;;;45.70;42.47;;;;;;;8.37;100.00;101181.28;5027975;28;20041;-81
2023/02/20 02:51:32;;;;;;;50.13;46.42;;;;;;;8.31;100.00;101187.31;5027713;28;20095;-81
2023/02/20 02:54:09;;;;;;;47.75;44.55;;;;;;;8.62;100.00;101203.06;5031633;28;20099;-81
2023/02/20 02:56:36;;;;;;;50.30;47.05;;;;;;;8.62;100.00;101203.94;5029924;28;20041;-81
2023/02/20 02:59:05;;;;;;;45.97;42.58;;;;;;;8.48;100.00;101196.78;5030748;28;20049;-81
2023/02/20 03:04:02;;;;;;;60.97;57.08;;;;;;;8.26;100.00;101211.69;5031426;28;20045;-77
2023/02/20 03:06:34;;;;;;;75.63;71.40;;;;;;;8.35;100.00;101215.91;5031423;28;20466;-76
2023/02/20 03:09:04;;;;;;;62.67;58.78;;;;;;;8.32;100.00;101212.75;5030483;28;20123;-77
2023/02/20 03:11:34;;;;;;;65.63;61.03;;;;;;;7.99;100.00;101218.34;5032638;28;20088;-77
2023/02/20 03:16:54;;;;;;;52.97;49.72;;;;;;;8.16;100.00;101219.00;5032385;28;20092;-77
2023/02/20 03:19:27;;;;;;;53.73;50.20;;;;;;;7.91;100.00;101232.44;5032439;28;20055;-77
2023/02/20 03:21:58;;;;;;;53.67;50.33;;;;;;;8.04;100.00;101222.06;5031095;28;20093;-77
2023/02/20 03:24:27;;;;;;;53.10;49.80;;;;;;;7.88;100.00;101218.72;5029435;28;20053;-77
2023/02/20 03:26:57;;;;;;;52.72;49.33;;;;;;;8.10;100.00;101215.25;5032704;28;20053;-77
2023/02/20 03:29:29;;;;;;;56.03;52.60;;;;;;;8.17;100.00;101225.94;5031596;28;20073;-77
2023/02/20 03:43:21;;;;;;;47.88;44.75;;;;;;;7.75;100.00;101235.19;5031431;28;20056;-77
2023/02/20 03:45:49;;;;;;;46.05;43.05;;;;;;;7.58;100.00;101215.94;5031736;28;20050;-77
2023/02/20 03:48:22;;;;;;;45.67;42.45;;;;;;;7.66;100.00;101223.00;5031511;28;20045;-77
2023/02/20 03:50:49;;;;;;;38.22;35.30;;;;;;;7.68;100.00;101226.28;5032118;28;20053;-77
2023/02/20 03:53:16;;;;;;;45.05;41.80;;;;;;;7.95;100.00;101222.31;5031955;28;20054;-77
2023/02/20 03:55:44;;;;;;;39.58;36.03;;;;;;;8.29;100.00;101226.34;5032250;28;20049;-77
2023/02/20 03:58:15;;;;;;;53.35;49.75;;;;;;;8.16;100.00;101225.13;5028046;28;20053;-77
2023/02/20 04:00:45;;;;;;;53.17;49.42;;;;;;;8.09;100.00;101234.78;5029949;28;20498;-77
2023/02/20 04:03:17;;;;;;;59.58;55.53;;;;;;;8.75;100.00;101244.84;5057728;28;20095;-77
2023/02/20 04:05:48;;;;;;;47.08;44.13;;;;;;;8.67;100.00;101256.31;5068849;28;20052;-77
2023/02/20 04:08:19;;;;;;;46.65;43.90;;;;;;;8.98;100.00;101269.41;5068227;28;20052;-77
2023/02/20 04:10:53;;;;;;;56.03;52.83;;;;;;;8.89;100.00;101273.97;5071669;28;20044;-77
2023/02/20 04:13:22;;;;;;;54.28;50.88;;;;;;;8.74;100.00;101267.00;5067726;28;20044;-77
2023/02/20 04:15:50;;;;;;;51.00;47.63;;;;;;;8.59;100.00;101285.53;5070016;28;20052;-77
2023/02/20 04:18:20;;;;;;;51.70;48.10;;;;;;;8.00;100.00;101307.28;5069328;28;20101;-77
2023/02/20 04:20:50;;;;;;;57.28;53.13;;;;;;;7.80;100.00;101302.41;5070176;28;20106;-77
2023/02/20 04:23:19;;;;;;;46.95;43.30;;;;;;;7.55;100.00;101316.75;5068690;28;20045;-77
2023/02/20 04:25:49;;;;;;;53.40;48.83;;;;;;;7.48;100.00;101321.06;5072604;28;20086;-77
2023/02/20 04:28:17;;;;;;;51.92;48.22;;;;;;;7.46;100.00;101313.28;5071069;28;20428;-77
2023/02/20 04:30:45;;;;;;;52.20;48.30;;;;;;;7.53;100.00;101309.00;5072680;28;20105;-77
2023/02/20 04:33:13;;;;;;;52.35;48.20;;;;;;;7.37;100.00;101321.44;5074940;28;20045;-77
2023/02/20 04:35:40;;;;;;;56.25;51.65;;;;;;;7.35;100.00;101326.88;5074769;28;20537;-77
2023/02/20 04:38:07;;;;;;;67.32;62.20;;;;;;;7.23;100.00;101334.34;5075662;28;20052;-77
2023/02/20 04:40:34;;;;;;;64.13;58.80;;;;;;;7.25;100.00;101331.53;5075556;28;20044;-77
2023/02/20 04:43:01;;;;;;;58.75;53.30;;;;;;;7.33;100.00;101340.28;5074677;28;20098;-77
2023/02/20 04:45:27;;;;;;;54.72;49.78;;;;;;;7.38;100.00;101333.63;5075046;28;20048;-77
2023/02/20 04:47:56;;;;;;;48.55;43.95;;;;;;;7.54;100.00;101352.94;5075341;28;20052;-77
2023/02/20 04:50:25;;;;;;;51.97;47.55;;;;;;;7.52;100.00;101348.81;5075575;28;20505;-77
2023/02/20 04:52:53;;;;;;;51.17;47.03;;;;;;;7.47;100.00;101338.72;5074487;28;20044;-77
2023/02/20 04:55:20;;;;;;;57.33;52.40;;;;;;;7.57;100.00;101336.72;5074167;28;20105;-77
2023/02/20 04:57:47;;;;;;;53.78;49.28;;;;;;;7.51;100.00;101333.94;5074646;28;20048;-77
2023/02/20 05:00:16;;;;;;;55.13;50.78;;;;;;;7.57;100.00;101333.25;5074084;28;20106;-77
2023/02/20 05:02:44;;;;;;;51.65;47.60;;;;;;;7.58;100.00;101359.50;5075036;28;20040;-77
2023/02/20 05:05:18;;;;;;;50.58;46.70;;;;;;;7.63;100.00;101360.84;5077215;28;20481;-77
2023/02/20 05:07:46;;;;;;;38.63;35.47;;;;;;;7.61;100.00;101366.28;5074725;28;20055;-77
2023/02/20 05:10:15;;;;;;;33.40;30.10;;;;;;;7.05;100.00;101363.63;5072331;28;20044;-77
2023/02/20 05:12:41;;;;;;;32.63;29.63;;;;;;;6.50;100.00;101366.88;5072928;28;20111;-77
2023/02/20 05:15:09;;;;;;;34.40;31.00;;;;;;;6.41;100.00;101375.78;5065915;28;20111;-77
2023/02/20 05:17:35;;;;;;;27.27;24.88;;;;;;;6.46;100.00;101389.31;5070035;28;20463;-77
2023/02/20 05:20:02;;;;;;;28.35;26.10;;;;;;;6.45;100.00;101394.78;5012375;28;20472;-77
2023/02/20 05:22:29;;;;;;;37.45;31.30;;;;;;;6.68;100.00;101405.53;5070327;28;20061;-77
2023/02/20 05:24:56;;;;;;;31.40;28.33;;;;;;;6.27;100.00;101406.28;5070503;28;20055;-77
2023/02/20 05:27:25;;;;;;;33.60;31.40;;;;;;;6.05;100.00;101407.69;5069904;28;20056;-77
2023/02/20 05:29:54;;;;;;;31.23;29.33;;;;;;;6.05;100.00;101407.69;5069829;28;20476;-77
2023/02/20 05:32:22;;;;;;;29.60;27.70;;;;;;;6.61;100.00;101419.38;5069395;28;20059;-78
2023/02/20 05:34:49;;;;;;;24.33;22.73;;;;;;;6.26;100.00;101419.59;5067695;28;20036;-77
2023/02/20 05:37:17;;;;;;;24.08;22.58;;;;;;;6.17;100.00;101432.78;5066891;28;20045;-77
2023/02/20 05:40:04;;;;;;;23.95;22.17;;;;;;;6.03;100.00;101435.22;5075879;28;20053;-77
2023/02/20 05:42:36;;;;;;;22.55;21.08;;;;;;;6.01;100.00;101455.63;5073222;28;20044;-77
2023/02/20 05:45:04;;;;;;;26.48;24.55;;;;;;;5.93;100.00;101459.03;5070124;28;20139;-76
2023/02/20 05:47:32;;;;;;;24.05;22.33;;;;;;;5.70;100.00;101467.47;5073188;28;20053;-77
2023/02/20 05:50:00;;;;;;;22.05;20.45;;;;;;;5.78;100.00;101468.47;5074335;28;20468;-77
2023/02/20 05:52:33;;;;;;;21.42;19.88;;;;;;;5.68;100.00;101479.97;5073903;28;20102;-77
2023/02/20 05:55:06;;;;;;;27.35;25.48;;;;;;;5.61;100.00;101473.66;5074802;28;20048;-77
2023/02/20 05:57:37;;;;;;;26.00;24.30;;;;;;;5.95;100.00;101468.44;5073752;28;20055;-77
2023/02/20 06:00:13;;;;;;;25.90;24.30;;;;;;;6.35;100.00;101488.06;5073448;28;20052;-77
2023/02/20 06:02:40;;;;;;;27.15;25.10;;;;;;;5.93;100.00;101494.16;5068069;28;20044;-77
2023/02/20 06:05:13;;;;;;;23.95;22.25;;;;;;;5.57;100.00;101501.31;5070817;28;20559;-76
2023/02/20 06:07:43;;;;;;;26.45;24.75;;;;;;;5.56;100.00;101520.72;5071931;28;20059;-76
2023/02/20 06:10:12;;;;;;;23.58;21.98;;;;;;;5.80;100.00;101527.16;5069178;28;20131;-77
2023/02/20 06:12:38;;;;;;;24.08;22.17;;;;;;;5.78;100.00;101529.97;5063996;28;20109;-77
2023/02/20 06:15:05;;;;;;;28.08;26.25;;;;;;;5.78;100.00;101532.59;5071569;28;20048;-77
2023/02/20 06:17:32;;;;;;;29.70;27.67;;;;;;;5.84;100.00;101523.22;5068970;28;20520;-77
2023/02/20 06:19:59;;;;;;;27.35;25.35;;;;;;;6.10;100.00;101539.91;5070711;28;20044;-77
2023/02/20 06:22:26;;;;;;;24.85;23.25;;;;;;;6.20;100.00;101555.59;5065420;28;20056;-77
2023/02/20 06:24:53;;;;;;;24.70;22.90;;;;;;;6.11;100.00;101559.19;5071319;28;20118;-77
2023/02/20 06:27:21;;;;;;;25.27;23.65;;;;;;;5.98;100.00;101556.97;5071678;28;20044;-77
2023/02/20 06:29:48;;;;;;;27.02;25.08;;;;;;;5.68;100.00;101571.38;5070595;28;20133;-77
2023/02/20 06:32:15;;;;;;;28.67;26.60;;;;;;;5.93;100.00;101565.38;5068544;28;20055;-77
2023/02/20 06:34:44;;;;;;;28.02;26.13;;;;;;;5.92;100.00;101563.66;5071585;28;20044;-78
2023/02/20 06:37:11;;;;;;;24.38;22.60;;;;;;;5.72;100.00;101568.31;5071020;28;20110;-77
2023/02/20 06:39:38;;;;;;;25.40;23.70;;;;;;;6.02;100.00;101581.22;5071854;28;20109;-77
2023/02/20 06:42:06;;;;;;;24.40;22.13;;;;;;;5.12;100.00;101585.72;5071023;28;20044;-77
2023/02/20 06:44:34;;;;;;;25.85;24.25;;;;;;;5.23;100.00;101599.50;5070774;28;20500;-77
2023/02/20 06:47:01;;;;;;;29.60;27.70;;;;;;;5.13;100.00;101597.91;5070483;28;20049;-77
2023/02/20 06:49:28;;;;;;;29.98;27.95;;;;;;;5.35;100.00;101609.81;5067098;28;20044;-78
2023/02/20 06:51:55;;;;;;;29.90;27.70;;;;;;;5.26;100.00;101616.78;5065650;28;20465;-77
2023/02/20 06:54:22;;;;;;;31.13;29.08;;;;;;;5.45;100.00;101616.66;5070352;28;20122;-77
2023/02/20 06:56:48;;;;;;;29.73;27.73;;;;;;;5.31;100.00;101608.44;5067066;28;20047;-77
2023/02/20 06:59:15;;;;;;;29.08;27.00;;;;;;;5.49;100.00;101612.75;5070922;28;20052;-77
2023/02/20 07:01:44;;;;;;;27.20;25.40;;;;;;;5.69;100.00;101613.44;5067739;28;20091;-77
2023/02/20 07:04:16;;;;;;;27.48;25.70;;;;;;;5.50;100.00;101622.28;5069263;28;20478;-77
2023/02/20 07:06:43;;;;;;;28.77;26.95;;;;;;;5.65;100.00;101617.31;5063135;28;20056;-77
2023/02/20 07:09:09;;;;;;;24.52;22.73;;;;;;;5.32;100.00;101613.56;5067451;28;20049;-77
2023/02/20 07:11:36;;;;;;;29.50;27.70;;;;;;;5.83;100.00;101619.13;5070124;28;20594;-76
2023/02/20 07:14:03;;;;;;;30.88;28.77;;;;;;;5.40;100.00;101637.34;5070157;28;20105;-77
2023/02/20 07:16:31;;;;;;;29.25;27.35;;;;;;;5.50;100.00;101640.75;5066267;28;20592;-76
2023/02/20 07:18:59;;;;;;;35.72;33.13;;;;;;;5.13;100.00;101651.41;5069405;28;20059;-77
2023/02/20 07:21:25;;;;;;;37.08;34.70;;;;;;;5.34;100.00;101645.88;5063501;28;20041;-77
2023/02/20 07:23:53;;;;;;;26.25;24.20;;;;;;;5.08;100.00;101653.63;5070558;28;20505;-76
2023/02/20 07:26:21;;;;;;;25.40;23.73;;;;;;;5.17;100.00;101652.75;5070215;28;20048;-77
2023/02/20 07:28:48;;;;;;;30.52;28.38;;;;;;;5.56;100.00;101662.22;5069725;28;20048;-77
2023/02/20 07:31:15;;;;;;;33.67;31.35;;;;;;;5.28;100.00;101662.25;5066450;28;20406;-77
2023/02/20 07:33:42;;;;;;;28.65;26.85;;;;;;;5.26;100.00;101661.56;5066595;28;20044;-77
2023/02/20 07:36:11;;;;;;;30.92;28.42;;;;;;;5.85;100.00;101677.81;5069352;28;20126;-77
2023/02/20 07:38:38;;;;;;;31.75;29.35;;;;;;;5.79;100.00;101683.69;5069263;28;20041;-76
2023/02/20 07:41:05;;;;;;;32.20;29.90;;;;;;;5.16;100.00;101680.06;5067513;28;20563;-77
2023/02/20 07:43:32;;;;;;;25.98;24.23;;;;;;;5.36;100.00;101683.44;5066650;28;20117;-77
2023/02/20 07:45:58;;;;;;;24.90;23.17;;;;;;;5.33;100.00;101689.00;5066487;28;20056;-77
2023/02/20 07:48:25;;;;;;;30.77;28.77;;;;;;;5.59;100.00;101683.00;5069253;28;20118;-77
2023/02/20 07:50:52;;;;;;;30.42;28.23;;;;;;;5.74;100.00;101692.88;5069634;28;20521;-77
2023/02/20 07:53:21;;;;;;;30.27;28.38;;;;;;;5.78;100.00;101701.31;5070499;28;20580;-77
2023/02/20 07:55:48;;;;;;;34.08;31.88;;;;;;;5.68;100.00;101711.09;5070169;28;20060;-77
2023/02/20 07:58:15;;;;;;;35.03;32.83;;;;;;;5.81;100.00;101700.16;5068134;28;20045;-77
2023/02/20 08:00:41;;;;;;;28.58;26.67;;;;;;;5.71;100.00;101708.97;5068302;28;20068;-77
2023/02/20 08:03:08;;;;;;;31.17;28.98;;;;;;;5.23;100.00;101720.66;5069452;28;20091;-77
2023/02/20 08:05:35;;;;;;;31.83;29.83;;;;;;;5.30;100.00;101726.19;5070229;28;20099;-77
2023/02/20 08:08:02;;;;;;;36.20;33.80;;;;;;;5.37;100.00;101729.03;5073364;28;20048;-77
2023/02/20 08:10:30;;;;;;;32.95;30.85;;;;;;;5.55;100.00;101734.34;5072905;28;20117;-76
2023/02/20 08:12:57;;;;;;;36.80;34.55;;;;;;;6.42;100.00;101737.16;5064786;28;20498;-77
2023/02/20 08:15:23;;;;;;;21.58;19.77;;;;;;;5.84;100.00;101742.06;5070095;28;20044;-76
2023/02/20 08:17:50;;;;;;;22.73;21.08;;;;;;;6.01;100.00;101738.63;5072508;28;20106;-77
2023/02/20 08:20:18;;;;;;;22.25;20.55;;;;;;;6.03;100.00;101747.22;5072341;28;20048;-77
2023/02/20 08:22:45;;;;;;;27.83;26.02;;;;;;;6.05;100.00;101752.34;5072103;28;20475;-77
2023/02/20 08:25:13;;;;;;;31.48;29.38;;;;;;;5.81;100.00;101753.75;5073932;28;20048;-77
2023/02/20 08:27:44;;;;;;;36.40;33.95;;;;;;;5.60;100.00;101750.53;5073014;28;20048;-77
2023/02/20 08:30:12;;;;;;;33.55;30.73;;;;;;;5.83;100.00;101758.84;5071610;28;20467;-77
2023/02/20 08:32:39;;;;;;;27.40;25.15;;;;;;;5.45;100.00;101771.31;5073798;28;20578;-77
2023/02/20 08:35:06;;;;;;;28.38;26.35;;;;;;;5.60;100.00;101772.47;5074623;28;20521;-77
2023/02/20 08:37:33;;;;;;;33.20;30.48;;;;;;;5.62;100.00;101775.78;5069539;28;20049;-77
2023/02/20 08:40:05;;;;;;;31.45;29.52;;;;;;;5.43;100.00;101779.34;5074282;28;20114;-77
2023/02/20 08:42:32;;;;;;;28.40;26.25;;;;;;;5.46;100.00;101794.03;5073653;28;20076;-77
2023/02/20 08:45:01;;;;;;;28.30;26.60;;;;;;;6.04;100.00;101795.53;5074605;28;20130;-76
2023/02/20 08:47:27;;;;;;;27.15;25.27;;;;;;;5.93;100.00;101796.56;5074097;28;20102;-77
2023/02/20 08:49:54;;;;;;;33.17;30.70;;;;;;;5.69;100.00;101805.03;5074526;28;20044;-77
2023/02/20 08:52:21;;;;;;;26.58;24.42;;;;;;;5.73;100.00;101795.84;5074033;28;20052;-77
2023/02/20 08:54:48;;;;;;;24.52;22.95;;;;;;;6.76;100.00;101789.22;5073797;28;20076;-77
2023/02/20 08:57:16;;;;;;;23.42;21.58;;;;;;;5.71;100.00;101801.25;5073482;28;20064;-77
2023/02/20 08:59:42;;;;;;;21.42;20.13;;;;;;;5.64;100.00;101796.72;5074062;28;20052;-77
2023/02/20 09:02:18;;;;;;;22.02;20.10;;;;;;;5.43;100.00;101799.59;5072771;28;20600;-77
2023/02/20 09:04:45;;;;;;;22.25;20.30;;;;;;;5.51;100.00;101807.63;5073771;28;20452;-77
2023/02/20 09:07:12;;;;;;;25.67;23.17;;;;;;;5.45;100.00;101803.75;5073245;28;20110;-76
2023/02/20 09:09:39;;;;;;;25.83;23.92;;;;;;;5.83;100.00;101801.03;5072982;28;20521;-76
2023/02/20 09:12:07;;;;;;;25.70;23.48;;;;;;;5.56;100.00;101813.25;5071854;28;20048;-76
2023/02/20 09:14:34;;;;;;;23.92;22.42;;;;;;;5.54;100.00;101809.97;5073013;28;20106;-77
2023/02/20 09:17:01;;;;;;;23.95;22.40;;;;;;;5.81;100.00;101813.53;5073495;28;20040;-77
2023/02/20 09:19:29;;;;;;;22.73;21.20;;;;;;;6.09;100.00;101812.56;5068222;28;20109;-77
2023/02/20 09:21:56;;;;;;;28.23;26.42;;;;;;;5.72;100.00;101818.75;5073170;28;20048;-76
2023/02/20 09:24:23;;;;;;;27.25;25.35;;;;;;;5.97;100.00;101821.69;5072942;28;20044;-77
2023/02/20 09:26:50;;;;;;;27.83;25.70;;;;;;;6.50;100.00;101818.22;5072442;28;20106;-77
2023/02/20 09:29:17;;;;;;;25.25;23.20;;;;;;;5.78;100.00;101822.59;5073260;28;20056;-77
2023/02/20 09:31:43;;;;;;;29.70;27.40;;;;;;;5.83;100.00;101816.88;5072606;28;20045;-77
2023/02/20 09:34:10;;;;;;;29.40;27.35;;;;;;;5.96;100.00;101814.72;5073763;28;20052;-77
2023/02/20 09:36:38;;;;;;;27.40;25.02;;;;;;;5.89;100.00;101806.56;5072820;28;20044;-77
2023/02/20 09:39:05;;;;;;;21.42;19.33;;;;;;;6.10;100.00;101800.22;5073208;28;20044;-77
2023/02/20 09:41:45;;;;;;;23.83;22.10;;;;;;;6.13;100.00;101800.72;5072893;28;20097;-77
2023/02/20 09:44:18;;;;;;;21.65;19.85;;;;;;;5.90;100.00;101802.97;5072853;28;20493;-77
2023/02/20 09:46:45;;;;;;;;;;;;;;;6.12;100.00;101796.44;5072763;28;20055;-77
2023/02/20 09:49:14;;;;;;;29.65;27.65;;;;;;;6.59;100.00;101796.16;5055007;28;19950;-77
2023/02/20 09:51:49;;;;;;;32.90;30.80;;;;;;;6.34;100.00;101800.44;5072604;28;20493;-77
2023/02/20 09:54:22;;;;;;;39.92;36.40;;;;;;;6.83;100.00;101797.34;5072340;28;20122;-77
2023/02/20 09:56:52;;;;;;;33.83;30.35;;;;;;;6.99;100.00;101794.81;5072947;28;20193;-76
2023/02/20 09:59:23;;;;;;;29.35;27.05;;;;;;;7.00;100.00;101800.94;5072525;28;20044;-77
2023/02/20 10:01:54;;;;;;;35.33;33.13;;;;;;;7.33;100.00;101800.13;5072193;28;20041;-77
2023/02/20 10:04:25;;;;;;;30.50;28.45;;;;;;;7.45;100.00;101800.66;5069347;28;20045;-77
2023/02/20 10:07:00;;;;;;;32.53;30.40;;;;;;;7.72;100.00;101802.25;5072342;28;20045;-77
2023/02/20 10:09:26;;;;;;;29.15;26.95;;;;;;;8.20;100.00;101808.66;5069236;28;20055;-77
2023/02/20 10:12:10;;;;;;;30.30;27.50;;;;;;;7.92;100.00;101820.47;5072318;28;20044;-77
2023/02/20 10:14:55;;;;;;;31.10;29.15;;;;;;;7.39;100.00;101817.16;5072892;28;20044;-77
2023/02/20 10:17:32;;;;;;;33.10;30.80;;;;;;;7.31;100.00;101809.19;5072123;28;20097;-77
2023/02/20 10:20:08;;;;;;;24.77;22.80;;;;;;;7.72;100.00;101817.28;5068116;28;20052;-77
2023/02/20 10:22:44;;;;;;;21.48;19.88;;;;;;;7.50;100.00;101814.25;5072160;28;20094;-77
2023/02/20 10:25:17;;;;;;;23.35;21.13;;;;;;;7.21;100.00;101809.31;5072195;28;20052;-77
2023/02/20 10:27:53;;;;;;;28.92;26.42;;;;;;;7.28;100.00;101806.84;5071585;28;20398;-77
2023/02/20 10:30:26;;;;;;;28.52;26.63;;;;;;;7.28;100.00;101805.03;5071653;28;20424;-77
2023/02/20 10:32:57;;;;;;;20.38;18.60;;;;;;;7.79;100.00;101805.91;5072218;28;20040;-77
2023/02/20 10:35:26;;;;;;;23.42;21.40;;;;;;;8.56;100.00;101797.75;5072272;28;20132;-77
2023/02/20 10:37:58;;;;;;;28.35;24.70;;;;;;;8.11;100.00;101798.19;5071920;28;20060;-77
2023/02/20 10:40:31;;;;;;;25.40;23.60;;;;;;;8.02;100.00;101797.38;5071792;28;20049;-77
2023/02/20 10:43:04;;;;;;;25.77;23.98;;;;;;;8.31;100.00;101786.31;5072013;28;20314;-77
2023/02/20 10:45:42;;;;;;;22.40;20.67;;;;;;;8.68;100.00;101787.66;5070684;28;20566;-77
2023/02/20 10:48:14;;;;;;;22.00;20.27;;;;;;;9.05;100.00;101789.75;5070756;28;20044;-77
2023/02/20 10:50:46;;;;;;;25.27;23.38;;;;;;;9.26;100.00;101777.75;5071841;28;20117;-77
2023/02/20 10:53:25;;;;;;;25.77;23.98;;;;;;;8.51;100.00;101773.59;5071661;28;20102;-77
2023/02/20 10:55:58;;;;;;;26.63;24.88;;;;;;;8.73;100.00;101771.25;5069186;28;20497;-77
2023/02/20 10:58:31;;;;;;;25.35;23.52;;;;;;;9.12;100.00;101777.47;5068409;28;20101;-77
2023/02/20 11:01:02;;;;;;;22.90;21.10;;;;;;;8.90;100.00;101776.38;5070717;28;20567;-77
2023/02/20 11:03:36;;;;;;;25.48;23.58;;;;;;;10.07;100.00;101779.16;5071640;28;20053;-77
2023/02/20 11:06:06;;;;;;;31.02;29.02;;;;;;;11.00;100.00;101762.06;5071569;28;20050;-77
2023/02/20 11:08:35;;;;;;;28.67;26.58;;;;;;;11.94;92.17;101769.38;5071753;28;20048;-77
2023/02/20 11:11:23;;;;;;;26.40;24.50;;;;;;;12.57;95.46;101755.19;5068409;28;20499;-77
2023/02/20 11:13:50;;;;;;;24.20;22.58;;;;;;;12.49;85.48;101752.66;5071222;28;20041;-78
2023/02/20 11:16:24;;;;;;;21.60;20.00;;;;;;;12.68;86.43;101745.84;5071452;28;20048;-77
2023/02/20 11:19:02;;;;;;;23.27;21.58;;;;;;;13.96;84.63;101762.22;5071206;28;20051;-78
2023/02/20 11:21:37;;;;;;;25.50;23.63;;;;;;;15.07;79.24;101746.38;5070751;28;20102;-77
2023/02/20 11:24:31;;;;;;;28.55;26.52;;;;;;;14.65;80.29;101745.84;5071191;28;20127;-77
2023/02/20 11:27:02;;;;;;;23.88;22.17;;;;;;;13.25;78.23;101752.78;5062249;28;20052;-78
2023/02/20 11:29:35;;;;;;;26.88;25.05;;;;;;;14.08;77.57;101741.91;5071520;28;20475;-77
2023/02/20 11:32:21;;;;;;;27.90;25.92;;;;;;;14.68;72.77;101733.91;5071116;28;20048;-77
2023/02/20 11:35:02;;;;;;;30.08;28.08;;;;;;;15.28;70.34;101731.03;5071417;28;20587;-77
2023/02/20 11:37:29;;;;;;;28.65;26.85;;;;;;;14.84;70.16;101736.13;5070978;28;20053;-77
2023/02/20 11:40:00;;;;;;;28.98;27.10;;;;;;;15.21;68.54;101708.84;5071521;28;20102;-78